Time;durP1;ratioP1;P1;durP2;ratioP2;P2;SDS_P1;SDS_P2;PMS_P1;PMS_P2;Temp;Humidity;BMP_temperature;BMP_pressure;BME280_temperature;BME280_humidity;BME280_pressure;Samples;Min_cycle;Max_cycle;Signal;HPM_P1;HPM_P2
2022/12/13 00:01:53;;;;;;;37.42;20.33;;;-1.50;99.90;;;;;;5065692;28;20113;-71
2022/12/13 00:04:20;;;;;;;39.60;20.95;;;-1.60;99.90;;;;;;5066235;28;20063;-72
2022/12/13 00:06:46;;;;;;;42.05;21.92;;;-1.50;99.90;;;;;;5032138;28;20037;-72
2022/12/13 00:09:14;;;;;;;39.65;20.58;;;-1.60;99.90;;;;;;5049599;28;20095;-72
2022/12/13 00:11:40;;;;;;;50.60;23.38;;;-1.50;99.90;;;;;;5037825;28;20040;-73
2022/12/13 00:14:05;;;;;;;45.80;22.73;;;-1.70;99.90;;;;;;5035388;28;20128;-72
2022/12/13 00:16:31;;;;;;;43.88;23.08;;;-1.70;99.90;;;;;;5035546;28;20045;-72
2022/12/13 00:18:58;;;;;;;45.53;21.88;;;-1.70;99.90;;;;;;5019122;28;20092;-72
2022/12/13 00:21:30;;;;;;;42.72;22.50;;;-1.60;99.90;;;;;;5035364;28;20124;-72
2022/12/13 00:23:56;;;;;;;40.90;20.80;;;-1.80;99.90;;;;;;5034616;28;20052;-72
2022/12/13 00:26:25;;;;;;;47.03;23.52;;;-1.60;99.90;;;;;;5033788;28;20083;-73
2022/12/13 00:28:52;;;;;;;44.67;22.17;;;-1.70;99.90;;;;;;5033826;28;20083;-72
2022/12/13 00:31:19;;;;;;;42.55;22.48;;;-1.80;99.90;;;;;;5017138;28;20102;-73
2022/12/13 00:33:45;;;;;;;45.53;22.38;;;-1.80;99.90;;;;;;5033706;28;20045;-72
2022/12/13 00:36:11;;;;;;;43.55;23.05;;;-1.80;99.90;;;;;;5016963;28;20495;-72
2022/12/13 00:38:37;;;;;;;42.45;22.15;;;-1.80;99.90;;;;;;5051335;28;20052;-72
2022/12/13 00:41:13;;;;;;;42.80;21.73;;;-1.90;99.90;;;;;;5051371;28;20041;-72
2022/12/13 00:43:39;;;;;;;45.08;21.85;;;-1.80;99.90;;;;;;5016531;28;20041;-72
2022/12/13 00:46:11;;;;;;;44.72;20.98;;;-1.90;99.90;;;;;;5051414;28;20048;-72
2022/12/13 00:48:36;;;;;;;42.20;21.15;;;-1.80;99.90;;;;;;5051417;28;20127;-73
2022/12/13 00:51:06;;;;;;;41.58;22.25;;;-1.90;99.90;;;;;;5051066;28;20073;-72
2022/12/13 00:53:32;;;;;;;38.90;22.45;;;-1.90;99.90;;;;;;5033006;28;20041;-73
2022/12/13 00:55:57;;;;;;;41.78;22.42;;;-2.00;99.90;;;;;;5033277;28;20048;-71
2022/12/13 00:58:23;;;;;;;43.38;22.80;;;-1.90;99.90;;;;;;5033033;28;20418;-72
2022/12/13 01:00:48;;;;;;;41.97;22.52;;;-2.10;99.90;;;;;;5053336;28;20410;-72
2022/12/13 01:03:24;;;;;;;45.05;23.83;;;-2.00;99.90;;;;;;5054383;28;20041;-72
2022/12/13 01:05:50;;;;;;;46.38;24.55;;;-2.10;99.90;;;;;;5054671;28;20045;-72
2022/12/13 01:08:15;;;;;;;41.45;21.10;;;-2.00;99.90;;;;;;5036495;28;20041;-72
2022/12/13 01:10:43;;;;;;;38.63;21.05;;;-2.00;99.90;;;;;;5054363;28;20039;-72
2022/12/13 01:13:08;;;;;;;40.25;20.52;;;-1.90;99.90;;;;;;5036450;28;20083;-72
2022/12/13 01:15:34;;;;;;;43.75;22.10;;;-2.00;99.90;;;;;;5054326;28;20091;-71
2022/12/13 01:17:59;;;;;;;41.15;22.58;;;-1.90;99.90;;;;;;5054440;28;20091;-72
2022/12/13 01:20:25;;;;;;;43.58;23.40;;;-1.90;99.90;;;;;;5054352;28;20063;-72
2022/12/13 01:22:50;;;;;;;37.28;21.17;;;-2.10;99.90;;;;;;5036063;28;20512;-73
2022/12/13 01:25:16;;;;;;;43.90;21.20;;;-2.00;99.90;;;;;;5036284;28;20406;-71
2022/12/13 01:27:42;;;;;;;46.10;21.65;;;-2.10;99.90;;;;;;5035986;28;20033;-72
2022/12/13 01:30:07;;;;;;;44.35;21.58;;;-2.10;99.90;;;;;;5054080;28;20394;-72
2022/12/13 01:32:33;;;;;;;43.22;21.95;;;-2.10;99.90;;;;;;5036017;28;20048;-72
2022/12/13 01:34:58;;;;;;;40.67;20.67;;;-2.00;99.90;;;;;;5036071;28;20045;-72
2022/12/13 01:37:24;;;;;;;40.63;22.88;;;-2.00;99.90;;;;;;5036344;28;20045;-72
2022/12/13 01:39:49;;;;;;;44.78;22.73;;;-2.00;99.90;;;;;;5036350;28;20044;-72
2022/12/13 01:42:15;;;;;;;40.42;20.60;;;-2.10;99.90;;;;;;5019277;28;20132;-72
2022/12/13 01:44:59;;;;;;;41.50;21.35;;;-2.20;99.90;;;;;;5035890;28;20037;-71
2022/12/13 01:47:35;;;;;;;46.47;21.63;;;-2.20;99.90;;;;;;5019293;28;20040;-72
2022/12/13 01:50:07;;;;;;;47.38;23.95;;;-2.10;99.90;;;;;;5035929;28;20499;-72
2022/12/13 01:52:33;;;;;;;41.95;22.90;;;-2.10;99.90;;;;;;5035437;28;20041;-72
2022/12/13 01:55:02;;;;;;;45.85;23.55;;;-2.10;99.90;;;;;;5036052;28;20041;-72
2022/12/13 01:57:29;;;;;;;43.03;21.65;;;-2.10;99.90;;;;;;5035720;28;20087;-72
2022/12/13 01:59:55;;;;;;;44.25;22.08;;;-2.00;99.90;;;;;;5036007;28;20044;-72
2022/12/13 02:02:21;;;;;;;37.42;20.08;;;-2.00;99.90;;;;;;5035320;28;20044;-71
2022/12/13 02:05:23;;;;;;;38.05;19.63;;;-2.00;99.90;;;;;;5035465;28;20422;-72
2022/12/13 02:07:49;;;;;;;41.22;20.92;;;-2.00;99.90;;;;;;5035700;28;20059;-72
2022/12/13 02:10:15;;;;;;;39.13;20.27;;;-2.00;99.90;;;;;;5018944;28;20037;-72
2022/12/13 02:12:41;;;;;;;44.53;20.92;;;-2.10;99.90;;;;;;5018823;28;20102;-72
2022/12/13 02:15:11;;;;;;;41.00;20.13;;;-2.20;99.90;;;;;;5019106;28;20088;-72
2022/12/13 02:17:51;;;;;;;50.45;20.40;;;-2.10;99.90;;;;;;5035762;28;20088;-72
2022/12/13 02:20:36;;;;;;;44.63;21.88;;;-2.10;99.90;;;;;;5035838;28;20094;-72
2022/12/13 02:23:34;;;;;;;41.08;23.17;;;-2.20;99.90;;;;;;5034981;28;20041;-71
2022/12/13 02:26:20;;;;;;;42.85;20.95;;;-2.10;99.90;;;;;;5017772;28;20045;-72
2022/12/13 02:29:05;;;;;;;41.40;21.33;;;-2.20;99.90;;;;;;5035161;28;20075;-72
2022/12/13 02:32:08;;;;;;;45.47;21.75;;;-2.20;99.90;;;;;;5018432;28;20045;-72
2022/12/13 02:34:44;;;;;;;37.83;20.92;;;-2.20;99.90;;;;;;5034787;28;20087;-72
2022/12/13 02:37:41;;;;;;;41.00;21.70;;;-2.30;99.90;;;;;;5034934;28;20040;-72
2022/12/13 02:40:27;;;;;;;39.03;22.55;;;-2.20;99.90;;;;;;5039565;28;20419;-72
2022/12/13 02:43:04;;;;;;;42.00;21.25;;;-2.30;99.90;;;;;;5052225;28;20190;-72
2022/12/13 02:45:49;;;;;;;44.38;19.50;;;-2.30;99.90;;;;;;5051629;28;20510;-72
2022/12/13 02:48:21;;;;;;;40.13;19.65;;;-2.30;99.90;;;;;;5051612;28;20048;-72
2022/12/13 02:50:49;;;;;;;40.75;19.63;;;-2.20;99.90;;;;;;5051314;28;20045;-71
2022/12/13 02:53:16;;;;;;;39.15;21.23;;;-2.20;99.90;;;;;;5034390;28;20047;-72
2022/12/13 02:55:41;;;;;;;44.67;22.25;;;-2.30;99.90;;;;;;5051183;28;20037;-72
2022/12/13 02:58:12;;;;;;;39.60;19.58;;;-2.30;99.90;;;;;;5051318;28;20103;-72
2022/12/13 03:00:59;;;;;;;41.08;20.10;;;-2.30;99.90;;;;;;5067837;28;20128;-72
2022/12/13 03:03:52;;;;;;;41.50;20.70;;;-2.30;99.90;;;;;;5051072;28;20037;-72
2022/12/13 03:06:29;;;;;;;41.05;19.00;;;-2.40;99.90;;;;;;5051044;28;20044;-72
2022/12/13 03:09:07;;;;;;;41.17;20.80;;;-2.40;99.90;;;;;;5068008;28;20448;-72
2022/12/13 03:15:01;;;;;;;39.00;19.50;;;-2.40;99.90;;;;;;5051120;28;20044;-72
2022/12/13 03:17:35;;;;;;;44.65;20.48;;;-2.40;99.90;;;;;;5050772;28;20045;-72
2022/12/13 03:20:02;;;;;;;34.83;19.88;;;-2.30;99.90;;;;;;5050824;28;20037;-72
2022/12/13 03:22:31;;;;;;;41.88;20.63;;;-2.30;99.90;;;;;;5033134;28;20510;-72
2022/12/13 03:24:57;;;;;;;42.00;20.42;;;-2.40;99.90;;;;;;5050596;28;20052;-71
2022/12/13 03:27:23;;;;;;;38.85;19.38;;;-2.30;99.90;;;;;;5050547;28;20068;-71
2022/12/13 03:29:49;;;;;;;41.22;21.80;;;-2.30;99.90;;;;;;5034154;28;20121;-72
2022/12/13 03:32:14;;;;;;;42.10;21.73;;;-2.30;99.90;;;;;;5050779;28;20525;-70
2022/12/13 03:34:40;;;;;;;38.22;20.77;;;-2.30;99.90;;;;;;5050462;28;20515;-72
2022/12/13 03:37:05;;;;;;;37.92;20.75;;;-2.30;99.90;;;;;;5050656;28;20041;-71
2022/12/13 03:39:31;;;;;;;43.75;19.77;;;-2.40;99.90;;;;;;5050768;28;20487;-72
2022/12/13 03:41:57;;;;;;;40.08;19.98;;;-2.30;99.90;;;;;;5050123;28;20045;-72
2022/12/13 03:44:23;;;;;;;39.00;21.10;;;-2.40;99.90;;;;;;5050094;28;20510;-71
2022/12/13 03:46:49;;;;;;;36.22;19.85;;;-2.40;99.90;;;;;;5051344;28;20072;-71
2022/12/13 03:49:15;;;;;;;37.95;19.15;;;-2.30;99.90;;;;;;5051471;28;20507;-72
2022/12/13 03:51:40;;;;;;;37.88;20.38;;;-2.30;99.90;;;;;;5051803;28;20375;-72
2022/12/13 03:54:06;;;;;;;38.92;18.98;;;-2.30;99.90;;;;;;5050222;28;20037;-72
2022/12/13 03:56:31;;;;;;;41.03;21.58;;;-2.40;99.90;;;;;;5051599;28;20051;-72
2022/12/13 03:58:57;;;;;;;38.53;20.48;;;-2.40;99.90;;;;;;5050263;28;20131;-72
2022/12/13 04:01:22;;;;;;;41.92;20.20;;;-2.40;99.90;;;;;;5051587;28;20077;-72
2022/12/13 04:03:48;;;;;;;39.13;20.48;;;-2.40;99.90;;;;;;5051035;28;20560;-71
2022/12/13 04:06:15;;;;;;;37.97;19.65;;;-2.40;99.90;;;;;;5050413;28;20439;-72
2022/12/13 04:08:41;;;;;;;36.28;19.85;;;-2.50;99.90;;;;;;5051612;28;20080;-72
2022/12/13 04:13:53;;;;;;;38.03;19.60;;;-2.60;99.90;;;;;;5049950;28;20057;-71
2022/12/13 04:16:18;;;;;;;34.00;18.95;;;-2.50;99.90;;;;;;5050205;28;20087;-72
2022/12/13 04:18:44;;;;;;;41.50;21.23;;;-2.60;99.90;;;;;;5050097;28;20507;-72
2022/12/13 04:21:09;;;;;;;37.33;21.08;;;-2.50;99.90;;;;;;5049901;28;20127;-72
2022/12/13 04:23:35;;;;;;;40.15;21.00;;;-2.60;99.90;;;;;;5032775;28;20099;-72
2022/12/13 04:26:01;;;;;;;40.88;19.92;;;-2.60;99.90;;;;;;5051084;28;20503;-73
2022/12/13 04:28:26;;;;;;;42.30;19.25;;;-2.60;99.90;;;;;;5094063;22;20052;-79
2022/12/13 04:30:52;;;;;;;36.60;18.77;;;-2.70;99.90;;;;;;5076286;28;20041;-78
2022/12/13 04:33:19;;;;;;;35.38;19.60;;;-2.60;99.90;;;;;;5076532;28;20508;-79
2022/12/13 04:35:46;;;;;;;37.75;18.35;;;-2.70;99.90;;;;;;5080251;28;20086;-78
2022/12/13 04:38:11;;;;;;;40.30;20.92;;;-2.70;99.90;;;;;;5080753;28;20045;-79
2022/12/13 04:40:37;;;;;;;39.28;21.25;;;-2.60;99.90;;;;;;5080328;28;20032;-80
2022/12/13 04:43:03;;;;;;;35.55;18.40;;;-2.60;99.90;;;;;;5063551;28;20036;-78
2022/12/13 04:45:28;;;;;;;38.15;20.35;;;-2.70;99.90;;;;;;5080653;28;20040;-79
2022/12/13 04:47:54;;;;;;;36.03;19.98;;;-2.60;99.90;;;;;;5082423;28;20036;-79
2022/12/13 04:50:19;;;;;;;36.72;19.45;;;-2.70;99.90;;;;;;5079394;28;20096;-79
2022/12/13 04:52:45;;;;;;;35.20;20.17;;;-2.70;99.90;;;;;;5080193;28;20056;-78
2022/12/13 04:55:11;;;;;;;33.38;18.92;;;-2.60;99.90;;;;;;5080562;28;20041;-80
2022/12/13 04:57:37;;;;;;;34.65;18.70;;;-2.70;99.90;;;;;;5078212;28;20052;-80
2022/12/13 05:00:04;;;;;;;36.50;18.63;;;-2.70;99.90;;;;;;5079985;28;20122;-80
2022/12/13 05:02:30;;;;;;;36.03;18.85;;;-2.60;99.90;;;;;;5061493;28;20637;-80
2022/12/13 05:04:55;;;;;;;37.42;18.73;;;-2.80;99.90;;;;;;5078858;28;20033;-79
2022/12/13 05:07:21;;;;;;;40.75;19.40;;;-2.70;99.90;;;;;;5079533;28;20064;-80
2022/12/13 05:09:47;;;;;;;33.67;19.67;;;-2.70;99.90;;;;;;5060907;28;20512;-80
2022/12/13 05:12:13;;;;;;;36.72;20.50;;;-2.80;99.90;;;;;;5061446;28;20054;-80
2022/12/13 05:14:38;;;;;;;40.67;21.08;;;-2.70;99.90;;;;;;5077737;28;20036;-80
2022/12/13 05:17:04;;;;;;;40.22;21.23;;;-2.70;99.90;;;;;;5077805;28;20040;-80
2022/12/13 05:19:29;;;;;;;42.38;20.08;;;-2.60;99.90;;;;;;5077086;28;20223;-80
2022/12/13 05:21:55;;;;;;;35.67;19.45;;;-2.80;99.90;;;;;;5060988;28;20121;-80
2022/12/13 05:24:21;;;;;;;39.08;18.75;;;-2.60;99.90;;;;;;5077705;28;20125;-80
2022/12/13 05:26:46;;;;;;;31.88;18.60;;;-2.80;99.90;;;;;;5062132;28;20089;-80
2022/12/13 05:29:12;;;;;;;37.05;19.92;;;-2.70;99.90;;;;;;5078278;28;20040;-80
2022/12/13 05:31:38;;;;;;;34.17;19.17;;;-2.80;99.90;;;;;;5062362;28;20051;-80
2022/12/13 05:34:03;;;;;;;35.92;18.52;;;-2.70;99.90;;;;;;5079067;28;20041;-81
2022/12/13 05:36:29;;;;;;;35.40;19.08;;;-2.80;99.90;;;;;;5079551;28;20044;-81
2022/12/13 05:38:55;;;;;;;41.03;19.15;;;-2.80;99.90;;;;;;5081045;28;20559;-80
2022/12/13 05:41:25;;;;;;;33.25;19.25;;;-2.80;99.90;;;;;;5081269;28;20040;-80
2022/12/13 05:43:51;;;;;;;31.60;18.58;;;-2.80;99.90;;;;;;5079351;28;20047;-81
2022/12/13 05:46:17;;;;;;;42.33;20.35;;;-2.80;99.90;;;;;;5077967;28;20032;-81
2022/12/13 05:48:43;;;;;;;37.33;18.48;;;-2.80;99.90;;;;;;5079450;28;20072;-80
2022/12/13 05:51:09;;;;;;;33.45;18.75;;;-2.80;99.90;;;;;;5080350;28;20044;-80
2022/12/13 05:53:35;;;;;;;40.88;19.17;;;-2.80;99.90;;;;;;5078948;28;20044;-81
2022/12/13 05:56:01;;;;;;;33.80;19.38;;;-2.80;99.90;;;;;;5080628;28;20047;-80
2022/12/13 05:58:27;;;;;;;39.38;20.35;;;-2.80;99.90;;;;;;5078268;28;20143;-82
2022/12/13 06:00:53;;;;;;;43.40;20.25;;;-2.90;99.90;;;;;;5079390;28;20033;-81
2022/12/13 06:03:19;;;;;;;35.25;18.85;;;-3.10;99.90;;;;;;5077991;28;20098;-80
2022/12/13 06:05:44;;;;;;;40.80;21.52;;;-3.00;99.90;;;;;;5079434;28;20094;-80
2022/12/13 06:08:10;;;;;;;37.40;19.52;;;-3.10;99.90;;;;;;5060519;28;20040;-80
2022/12/13 06:10:36;;;;;;;39.13;20.38;;;-3.10;99.90;;;;;;5076828;28;20049;-80
2022/12/13 06:13:04;;;;;;;36.00;19.83;;;-3.10;99.90;;;;;;5076611;28;20056;-81
2022/12/13 06:15:31;;;;;;;38.17;20.73;;;-3.10;99.90;;;;;;5058663;28;20029;-81
2022/12/13 06:17:58;;;;;;;38.05;20.98;;;-2.90;99.90;;;;;;5058859;28;20588;-81
2022/12/13 06:20:24;;;;;;;37.10;19.77;;;-3.00;99.90;;;;;;5057313;28;20068;-80
2022/12/13 06:22:51;;;;;;;38.85;21.65;;;-3.00;99.90;;;;;;5058023;28;20483;-80
2022/12/13 06:25:17;;;;;;;43.83;21.73;;;-2.90;99.90;;;;;;5057635;28;20041;-80
2022/12/13 06:27:43;;;;;;;37.45;21.60;;;-2.90;99.90;;;;;;5056290;28;20068;-80
2022/12/13 06:30:09;;;;;;;41.25;19.58;;;-3.00;99.90;;;;;;5039704;28;20040;-81
2022/12/13 06:32:34;;;;;;;35.08;20.00;;;-3.00;99.90;;;;;;5041327;28;20127;-81
2022/12/13 06:35:00;;;;;;;40.85;20.65;;;-3.00;99.90;;;;;;5060766;28;20064;-80
2022/12/13 06:37:25;;;;;;;36.10;19.52;;;-2.90;99.90;;;;;;5062271;28;20037;-80
2022/12/13 06:39:51;;;;;;;34.67;18.42;;;-3.00;99.90;;;;;;5061522;28;20064;-80
2022/12/13 06:42:18;;;;;;;39.08;20.80;;;-2.90;99.90;;;;;;5060781;28;20110;-82
2022/12/13 06:44:44;;;;;;;36.45;19.33;;;-2.90;99.90;;;;;;5044341;28;20064;-80
2022/12/13 06:47:10;;;;;;;36.40;20.38;;;-3.00;99.90;;;;;;5061678;28;20029;-80
2022/12/13 06:49:35;;;;;;;39.78;20.95;;;-2.80;99.90;;;;;;5061032;28;20040;-80
2022/12/13 06:52:01;;;;;;;39.00;20.75;;;-2.90;99.90;;;;;;5060398;28;20044;-80
2022/12/13 06:54:27;;;;;;;43.30;22.48;;;-2.80;99.90;;;;;;5059816;28;20044;-80
2022/12/13 06:56:52;;;;;;;36.28;20.95;;;-3.00;99.90;;;;;;5061326;28;20052;-79
2022/12/13 06:59:18;;;;;;;35.97;22.40;;;-2.90;99.90;;;;;;5060349;28;20120;-80
2022/12/13 07:01:43;;;;;;;37.03;20.63;;;-2.90;99.90;;;;;;5060020;28;20091;-80
2022/12/13 07:04:10;;;;;;;40.08;20.25;;;-2.90;99.90;;;;;;5059239;28;20041;-80
2022/12/13 07:06:36;;;;;;;35.40;19.52;;;-3.10;99.90;;;;;;5043256;28;20065;-79
2022/12/13 07:09:02;;;;;;;33.80;20.38;;;-3.10;99.90;;;;;;5060916;28;20040;-80
2022/12/13 07:11:30;;;;;;;36.92;18.13;;;-3.00;99.90;;;;;;5059472;28;20051;-79
2022/12/13 07:13:56;;;;;;;37.15;18.98;;;-3.10;99.90;;;;;;5061019;28;20044;-79
2022/12/13 07:16:22;;;;;;;32.92;19.40;;;-3.10;99.90;;;;;;5059447;28;20037;-79
2022/12/13 07:19:00;;;;;;;34.63;19.10;;;-3.10;99.90;;;;;;5060895;28;20041;-79
2022/12/13 07:21:27;;;;;;;35.15;18.08;;;-3.10;99.90;;;;;;5059435;28;20045;-80
2022/12/13 07:23:52;;;;;;;34.33;19.05;;;-3.00;99.90;;;;;;5061466;28;20037;-80
2022/12/13 07:26:18;;;;;;;40.47;19.42;;;-3.20;99.90;;;;;;5062272;28;20037;-79
2022/12/13 07:28:45;;;;;;;40.38;19.75;;;-3.00;99.90;;;;;;5060882;28;20491;-80
2022/12/13 07:31:11;;;;;;;39.33;22.20;;;-3.00;99.90;;;;;;5060956;28;20044;-79
2022/12/13 07:33:38;;;;;;;40.08;21.88;;;-3.10;99.90;;;;;;5059221;28;20128;-79
2022/12/13 07:36:12;;;;;;;38.08;21.63;;;-2.90;99.90;;;;;;5060705;28;20077;-81
2022/12/13 07:38:38;;;;;;;47.50;22.13;;;-3.00;99.90;;;;;;5060423;28;20045;-80
2022/12/13 07:41:04;;;;;;;38.72;19.67;;;-3.00;99.90;;;;;;5060857;28;20086;-80
2022/12/13 07:43:31;;;;;;;38.83;19.48;;;-3.00;99.90;;;;;;5060138;28;20045;-80
2022/12/13 07:45:58;;;;;;;33.55;18.45;;;-3.00;99.90;;;;;;5039862;28;20044;-80
2022/12/13 07:48:24;;;;;;;38.38;20.35;;;-3.00;99.90;;;;;;5057411;28;20044;-81
2022/12/13 07:50:49;;;;;;;39.60;20.20;;;-3.00;99.90;;;;;;5041044;28;20052;-80
2022/12/13 07:53:15;;;;;;;38.35;20.40;;;-2.90;99.90;;;;;;5056063;28;20438;-80
2022/12/13 07:55:41;;;;;;;41.08;19.83;;;-3.00;99.90;;;;;;5058055;28;20045;-81
2022/12/13 07:58:12;;;;;;;39.85;22.13;;;-2.90;99.90;;;;;;5058133;28;20048;-80
2022/12/13 08:00:40;;;;;;;41.85;22.33;;;-3.10;99.90;;;;;;5057662;28;20045;-80
2022/12/13 08:03:06;;;;;;;38.10;20.05;;;-3.00;99.90;;;;;;5057298;28;20495;-81
2022/12/13 08:05:33;;;;;;;37.60;18.30;;;-2.90;99.90;;;;;;5039829;28;20120;-80
2022/12/13 08:07:59;;;;;;;41.65;19.88;;;-3.00;99.90;;;;;;5055721;28;20601;-81
2022/12/13 08:10:25;;;;;;;37.08;19.48;;;-2.90;99.90;;;;;;5059487;28;20029;-81
2022/12/13 08:12:50;;;;;;;38.50;20.40;;;-2.90;99.90;;;;;;5059890;28;20040;-82
2022/12/13 08:15:16;;;;;;;45.58;21.83;;;-2.90;99.90;;;;;;5058989;28;20053;-80
2022/12/13 08:17:42;;;;;;;41.83;21.23;;;-3.00;99.90;;;;;;5042370;28;20099;-80
2022/12/13 08:20:08;;;;;;;40.05;21.45;;;-2.90;99.90;;;;;;5058992;28;20049;-79
2022/12/13 08:22:34;;;;;;;42.83;21.60;;;-2.70;99.90;;;;;;5044888;28;20041;-79
2022/12/13 08:24:59;;;;;;;32.88;18.33;;;-2.80;99.90;;;;;;5045045;28;20056;-80
2022/12/13 08:27:26;;;;;;;45.13;21.10;;;-2.80;99.90;;;;;;5060104;28;20033;-80
2022/12/13 08:29:52;;;;;;;36.47;21.23;;;-2.80;99.90;;;;;;5044457;28;20045;-79
2022/12/13 08:32:17;;;;;;;40.28;21.63;;;-2.80;99.90;;;;;;5077890;28;20066;-80
2022/12/13 08:34:44;;;;;;;43.05;21.73;;;-2.90;99.90;;;;;;5081074;28;20048;-80
2022/12/13 08:37:10;;;;;;;43.40;23.85;;;-2.80;99.90;;;;;;5083266;28;20040;-80
2022/12/13 08:39:37;;;;;;;45.05;22.15;;;-2.70;99.90;;;;;;5079520;28;20047;-79
2022/12/13 08:42:10;;;;;;;43.15;22.75;;;-2.70;99.90;;;;;;5062489;28;20029;-79
2022/12/13 08:44:35;;;;;;;47.03;23.05;;;-2.70;99.90;;;;;;5081554;28;20490;-79
2022/12/13 08:47:01;;;;;;;47.60;24.05;;;-2.50;99.90;;;;;;5082385;28;20051;-79
2022/12/13 08:49:26;;;;;;;46.85;21.92;;;-2.60;99.90;;;;;;5081432;28;20079;-79
2022/12/13 08:51:52;;;;;;;45.33;23.13;;;-2.40;99.90;;;;;;5081671;28;20051;-79
2022/12/13 08:54:17;;;;;;;50.65;22.95;;;-2.50;99.90;;;;;;5062902;28;20127;-80
2022/12/13 08:56:43;;;;;;;48.13;23.33;;;-2.50;99.90;;;;;;5077514;28;20044;-81
2022/12/13 08:59:08;;;;;;;49.40;24.83;;;-2.40;99.90;;;;;;5060436;28;20101;-79
2022/12/13 09:01:34;;;;;;;49.35;24.85;;;-2.40;99.90;;;;;;5077601;28;20089;-80
2022/12/13 09:03:59;;;;;;;43.83;22.58;;;-2.30;99.90;;;;;;5077473;28;20086;-80
2022/12/13 09:06:25;;;;;;;41.75;21.90;;;-2.20;99.90;;;;;;5059257;28;20090;-79
2022/12/13 09:08:54;;;;;;;48.45;23.73;;;-2.20;99.90;;;;;;5078846;28;20498;-79
2022/12/13 09:11:20;;;;;;;52.25;26.10;;;-2.20;99.90;;;;;;5079334;28;20059;-78
2022/12/13 09:13:46;;;;;;;51.53;28.60;;;-2.10;99.90;;;;;;5080391;28;20101;-80
2022/12/13 09:16:15;;;;;;;49.50;25.92;;;-2.00;99.90;;;;;;5078770;28;20466;-79
2022/12/13 09:18:41;;;;;;;56.47;26.63;;;-2.10;99.90;;;;;;5078589;28;20058;-79
2022/12/13 09:21:12;;;;;;;57.00;27.42;;;-2.00;99.90;;;;;;5060239;28;20520;-79
2022/12/13 09:23:40;;;;;;;49.80;25.90;;;-1.90;99.90;;;;;;5079234;28;20591;-78
2022/12/13 09:26:07;;;;;;;49.25;25.50;;;-2.10;99.90;;;;;;5078695;28;20044;-79
2022/12/13 09:28:35;;;;;;;53.15;26.40;;;-2.00;99.90;;;;;;5062072;28;20082;-79
2022/12/13 09:31:06;;;;;;;44.88;25.85;;;-1.90;99.90;;;;;;5079683;28;20093;-78
2022/12/13 09:33:32;;;;;;;45.65;25.48;;;-1.80;99.90;;;;;;5077855;28;20064;-79
2022/12/13 09:35:58;;;;;;;54.55;27.38;;;-1.80;99.90;;;;;;5078756;28;20036;-78
2022/12/13 09:38:23;;;;;;;49.88;25.80;;;-1.90;99.90;;;;;;5078002;28;20036;-78
2022/12/13 09:40:52;;;;;;;52.80;27.08;;;-1.70;99.90;;;;;;5078204;28;20048;-78
2022/12/13 09:43:26;;;;;;;48.95;26.88;;;-1.70;99.90;;;;;;5061183;28;20028;-79
2022/12/13 09:45:52;;;;;;;50.58;26.27;;;-1.70;99.90;;;;;;5061844;28;20044;-78
2022/12/13 09:48:20;;;;;;;46.47;23.58;;;-1.70;99.90;;;;;;5075024;28;20123;-79
2022/12/13 09:50:46;;;;;;;51.42;25.15;;;-1.60;99.90;;;;;;5059025;28;20037;-79
2022/12/13 09:53:14;;;;;;;44.20;25.05;;;-1.60;99.90;;;;;;5075568;28;20086;-79
2022/12/13 09:55:46;;;;;;;51.28;24.55;;;-1.70;99.90;;;;;;5075748;28;20086;-78
2022/12/13 09:58:24;;;;;;;53.13;25.88;;;-1.70;99.90;;;;;;5079670;28;20044;-79
2022/12/13 10:00:55;;;;;;;53.25;25.42;;;-1.60;99.90;;;;;;5078516;28;20079;-79
2022/12/13 10:03:23;;;;;;;48.67;25.65;;;-1.50;99.90;;;;;;5078239;28;20451;-79
2022/12/13 10:06:13;;;;;;;55.65;26.80;;;-1.50;99.90;;;;;;5079207;28;20146;-79
2022/12/13 10:08:49;;;;;;;50.55;26.42;;;-1.50;99.90;;;;;;5083274;28;20147;-78
2022/12/13 10:11:16;;;;;;;46.38;24.30;;;-1.50;99.90;;;;;;5078563;28;20048;-79
2022/12/13 10:13:56;;;;;;;51.05;24.33;;;-1.30;99.90;;;;;;5075180;28;20039;-79
2022/12/13 10:16:34;;;;;;;52.75;26.27;;;-1.30;99.90;;;;;;5076693;28;20047;-77
2022/12/13 10:19:45;;;;;;;50.95;25.70;;;-1.30;99.90;;;;;;5075863;28;20051;-76
2022/12/13 10:22:15;;;;;;;47.80;25.25;;;-1.40;99.90;;;;;;5075645;28;20045;-76
2022/12/13 10:24:59;;;;;;;51.40;26.80;;;-1.40;99.90;;;;;;5061463;28;20040;-76
2022/12/13 10:27:30;;;;;;;52.92;28.58;;;-1.20;99.90;;;;;;5094613;22;20105;-71
2022/12/13 10:30:14;;;;;;;49.95;25.67;;;-1.30;99.90;;;;;;5054427;28;20055;-71
2022/12/13 10:32:49;;;;;;;49.45;25.20;;;-1.30;99.90;;;;;;5071979;28;20078;-71
2022/12/13 10:35:31;;;;;;;48.20;25.55;;;-1.30;99.90;;;;;;5067688;28;20049;-71
2022/12/13 10:38:06;;;;;;;47.63;26.15;;;-1.20;99.90;;;;;;5069252;28;20041;-71
2022/12/13 10:40:35;;;;;;;48.50;25.77;;;-1.20;99.90;;;;;;5040516;28;20509;-72
2022/12/13 10:43:10;;;;;;;48.88;25.45;;;-0.90;99.90;;;;;;5043784;28;20041;-71
2022/12/13 10:45:36;;;;;;;44.15;25.75;;;-1.20;99.90;;;;;;5043163;28;20055;-74
2022/12/13 10:48:03;;;;;;;51.15;25.30;;;-1.00;99.90;;;;;;5044806;28;20063;-71
2022/12/13 10:50:29;;;;;;;47.83;26.75;;;-1.00;99.90;;;;;;5043369;28;20048;-71
2022/12/13 10:52:56;;;;;;;51.00;26.35;;;-0.90;99.90;;;;;;5047428;28;20517;-70
2022/12/13 10:55:32;;;;;;;49.13;26.05;;;-1.00;99.90;;;;;;5042632;28;20049;-70
2022/12/13 10:58:06;;;;;;;48.05;25.85;;;-1.00;99.90;;;;;;5055643;28;20502;-70
2022/12/13 11:00:44;;;;;;;53.70;27.50;;;-0.80;99.90;;;;;;5039311;28;20044;-71
2022/12/13 11:03:26;;;;;;;49.63;27.33;;;-0.90;99.90;;;;;;5045550;28;20036;-71
2022/12/13 11:06:05;;;;;;;56.20;28.83;;;-0.80;99.90;;;;;;5053990;28;20560;-72
2022/12/13 11:08:30;;;;;;;51.58;27.45;;;-0.70;99.90;;;;;;5037126;28;20060;-71
2022/12/13 11:11:05;;;;;;;50.58;27.17;;;-0.80;99.90;;;;;;5052861;28;20382;-71
2022/12/13 11:13:51;;;;;;;48.80;25.83;;;-0.80;99.90;;;;;;5052464;28;20359;-71
2022/12/13 11:16:22;;;;;;;51.05;26.33;;;-0.60;99.90;;;;;;5071698;28;20106;-71
2022/12/13 11:18:53;;;;;;;52.30;27.95;;;-0.60;99.90;;;;;;5044362;28;20087;-71
2022/12/13 11:21:29;;;;;;;56.08;28.67;;;-0.50;99.90;;;;;;5044907;28;20586;-72
2022/12/13 11:23:59;;;;;;;53.70;28.25;;;-0.40;99.90;;;;;;5048220;28;20032;-71
2022/12/13 11:26:27;;;;;;;56.90;28.13;;;-0.60;99.90;;;;;;5044426;28;20037;-72
2022/12/13 11:29:25;;;;;;;52.58;28.48;;;-0.40;99.90;;;;;;5037755;28;20044;-71
2022/12/13 11:32:20;;;;;;;51.03;26.73;;;-0.60;99.90;;;;;;5031769;28;20044;-71
2022/12/13 11:35:02;;;;;;;49.97;28.13;;;-0.60;99.90;;;;;;5011818;28;20405;-71
2022/12/13 11:37:48;;;;;;;51.10;25.77;;;-0.20;99.90;;;;;;5053729;28;20075;-71
2022/12/13 11:40:26;;;;;;;48.75;27.13;;;-0.20;99.90;;;;;;5053699;28;20134;-71
2022/12/13 11:43:23;;;;;;;56.80;27.13;;;-0.50;99.90;;;;;;5053430;28;20086;-71
2022/12/13 11:45:54;;;;;;;50.75;26.85;;;-0.20;99.90;;;;;;5043791;28;20052;-71
2022/12/13 11:48:45;;;;;;;48.20;26.05;;;-0.30;99.90;;;;;;5045835;28;20033;-71
2022/12/13 11:51:14;;;;;;;49.33;25.60;;;0.00;99.90;;;;;;5014306;28;20391;-73
2022/12/13 11:54:01;;;;;;;49.47;27.73;;;-0.10;99.90;;;;;;5013387;28;20084;-72
2022/12/13 11:56:34;;;;;;;48.55;25.38;;;-0.10;99.90;;;;;;5031672;28;20052;-70
2022/12/13 11:59:21;;;;;;;50.25;27.45;;;0.00;99.90;;;;;;5013996;28;20076;-71
2022/12/13 12:01:53;;;;;;;48.13;25.23;;;-0.10;99.90;;;;;;5013826;28;20041;-71
2022/12/13 12:04:34;;;;;;;48.30;25.05;;;0.20;99.90;;;;;;5013460;28;20045;-71
2022/12/13 12:07:14;;;;;;;45.28;25.70;;;0.00;99.90;;;;;;5013569;28;20029;-70
2022/12/13 12:09:47;;;;;;;42.17;24.40;;;0.20;99.90;;;;;;5013663;28;20033;-71
2022/12/13 12:12:28;;;;;;;47.70;25.40;;;0.30;99.90;;;;;;5013375;28;20523;-71
2022/12/13 12:15:24;;;;;;;45.47;24.42;;;0.00;99.90;;;;;;5014320;28;20053;-71
2022/12/13 12:17:49;;;;;;;41.80;24.52;;;0.00;99.90;;;;;;5013821;28;20042;-72
2022/12/13 12:20:20;;;;;;;47.45;23.75;;;0.10;99.90;;;;;;5013653;28;20111;-72
2022/12/13 12:23:23;;;;;;;43.47;24.25;;;0.10;99.90;;;;;;4996972;28;20041;-70
2022/12/13 12:26:01;;;;;;;42.80;23.67;;;0.40;99.90;;;;;;5013160;28;20037;-71
2022/12/13 12:28:37;;;;;;;44.85;24.42;;;0.10;99.90;;;;;;5013387;28;20549;-71
2022/12/13 12:31:23;;;;;;;39.90;23.55;;;0.20;99.90;;;;;;5030798;28;20518;-72
2022/12/13 12:34:00;;;;;;;38.65;22.33;;;0.20;99.90;;;;;;5034888;28;20052;-71
2022/12/13 12:37:01;;;;;;;40.90;22.73;;;0.50;99.90;;;;;;5031738;28;20410;-71
2022/12/13 12:39:40;;;;;;;42.45;23.88;;;0.40;99.90;;;;;;5040412;28;20045;-72
2022/12/13 12:42:08;;;;;;;39.33;21.77;;;0.50;99.90;;;;;;5035870;28;20052;-71
2022/12/13 12:44:44;;;;;;;42.25;23.45;;;0.20;99.90;;;;;;5033117;28;20076;-71
2022/12/13 12:47:28;;;;;;;40.30;21.15;;;0.20;99.90;;;;;;5040054;28;20048;-71
2022/12/13 12:50:21;;;;;;;36.33;21.02;;;0.30;99.90;;;;;;5025104;28;20048;-71